createdAt,value
2024-01-17T00:00:41.044Z,58.50
2024-01-17T00:05:42.907Z,58.68
2024-01-17T00:10:44.709Z,57.79
2024-01-17T00:15:46.515Z,58.37
2024-01-17T00:20:48.523Z,58.83
2024-01-17T00:25:50.400Z,57.76
2024-01-17T00:30:52.342Z,57.92
2024-01-17T00:35:54.467Z,57.73
2024-01-17T00:40:56.546Z,57.78
2024-01-17T00:45:58.349Z,58.27
2024-01-17T00:51:00.400Z,58.22
2024-01-17T00:56:02.371Z,58.08
2024-01-17T01:01:04.411Z,56.92
2024-01-17T01:06:06.561Z,56.92
2024-01-17T01:11:08.977Z,57.65
2024-01-17T01:16:11.530Z,57.99
2024-01-17T01:21:13.535Z,57.26
2024-01-17T01:26:15.897Z,56.91
2024-01-17T01:31:17.601Z,57.47
2024-01-17T01:36:19.299Z,56.89
2024-01-17T01:41:21.387Z,57.57
2024-01-17T01:46:29.018Z,57.44
2024-01-17T01:51:30.836Z,56.88
2024-01-17T01:56:36.402Z,57.06
2024-01-17T02:01:38.408Z,57.32
2024-01-17T02:06:41.556Z,57.67
2024-01-17T02:11:43.663Z,57.66
2024-01-17T02:16:45.868Z,57.13
2024-01-17T02:21:48.001Z,55.53
2024-01-17T02:26:49.921Z,57.82
2024-01-17T02:31:52.543Z,60.59
2024-01-17T02:36:54.536Z,59.06
2024-01-17T02:41:56.365Z,58.24
2024-01-17T02:46:58.221Z,60.86
2024-01-17T02:51:59.975Z,58.26
2024-01-17T02:57:01.998Z,60.03
2024-01-17T03:02:04.027Z,59.22
2024-01-17T03:07:05.892Z,57.83
2024-01-17T03:12:07.914Z,58.71
2024-01-17T03:17:09.854Z,59.62
2024-01-17T03:22:11.706Z,59.88
2024-01-17T03:27:14.645Z,60.77
2024-01-17T03:32:16.663Z,58.37
2024-01-17T03:37:19.879Z,59.41
2024-01-17T03:42:21.762Z,58.72
2024-01-17T03:47:23.763Z,58.52
2024-01-17T03:52:25.493Z,61.13
2024-01-17T03:57:29.045Z,59.67
2024-01-17T04:02:31.072Z,61.46
2024-01-17T04:07:32.985Z,58.50
2024-01-17T04:12:34.670Z,60.30
2024-01-17T04:17:37.285Z,59.73
2024-01-17T04:22:39.354Z,61.42
2024-01-17T04:27:41.193Z,59.75
2024-01-17T04:32:43.259Z,60.14
2024-01-17T04:37:45.203Z,64.46
2024-01-17T04:42:50.343Z,62.74
2024-01-17T04:47:52.480Z,60.97
2024-01-17T04:52:54.359Z,61.35
2024-01-17T04:57:56.219Z,61.62
2024-01-17T05:02:57.986Z,61.68
2024-01-17T05:07:59.845Z,61.86
2024-01-17T05:13:01.917Z,60.77
2024-01-17T05:18:08.425Z,60.81
2024-01-17T05:23:10.416Z,60.90
2024-01-17T05:28:12.203Z,60.69
2024-01-17T05:33:15.140Z,61.10
2024-01-17T05:38:17.211Z,61.34
2024-01-17T05:43:18.979Z,61.41
2024-01-17T05:48:20.989Z,60.92
2024-01-17T05:53:23.035Z,61.08
2024-01-17T05:58:24.779Z,61.08
2024-01-17T06:03:26.733Z,61.99
2024-01-17T06:08:29.677Z,61.68
2024-01-17T06:13:31.688Z,61.97
2024-01-17T06:18:33.870Z,62.17
2024-01-17T06:23:36.054Z,61.50
2024-01-17T06:28:37.863Z,61.56
2024-01-17T06:33:40.808Z,61.27
2024-01-17T06:38:42.881Z,61.62
2024-01-17T06:43:46.288Z,62.01
2024-01-17T06:48:49.082Z,61.11
2024-01-17T06:53:51.250Z,61.83
2024-01-17T06:58:53.189Z,61.41
2024-01-17T07:03:55.207Z,61.58
2024-01-17T07:08:57.253Z,68.63
2024-01-17T07:13:59.092Z,69.41
2024-01-17T07:19:01.622Z,70.36
2024-01-17T07:24:03.735Z,70.92
2024-01-17T07:29:06.357Z,71.38
2024-01-17T07:34:08.448Z,71.59
2024-01-17T07:39:12.473Z,72.48
2024-01-17T07:44:15.421Z,73.29
2024-01-17T07:49:17.537Z,73.32
2024-01-17T07:54:19.657Z,72.95
2024-01-17T07:59:22.084Z,72.95
2024-01-17T08:04:24.451Z,73.68
2024-01-17T08:09:29.730Z,73.79
2024-01-17T08:14:31.750Z,71.34
2024-01-17T08:19:34.886Z,73.93
2024-01-17T08:24:36.893Z,75.01
2024-01-17T08:29:38.734Z,76.92
2024-01-17T08:34:40.565Z,76.52
2024-01-17T08:39:45.372Z,75.91
2024-01-17T08:44:47.271Z,78.17
2024-01-17T08:49:49.393Z,76.53
2024-01-17T08:54:51.318Z,76.52
2024-01-17T08:59:53.378Z,76.05
2024-01-17T09:04:55.344Z,77.47
2024-01-17T09:09:58.028Z,70.29
2024-01-17T09:15:00.494Z,75.58
2024-01-17T09:20:05.765Z,74.66
2024-01-17T09:25:09.550Z,74.37
2024-01-17T09:30:11.867Z,75.82
2024-01-17T09:35:14.062Z,76.86
2024-01-17T09:40:16.230Z,77.81
2024-01-17T09:45:19.569Z,77.09
2024-01-17T09:50:21.609Z,72.54
2024-01-17T09:55:25.215Z,67.91
2024-01-17T10:00:28.754Z,69.83
2024-01-17T10:05:36.865Z,76.21
2024-01-17T10:10:42.323Z,64.94
2024-01-17T10:15:48.113Z,62.65
2024-01-17T10:20:50.425Z,72.65
2024-01-17T10:25:52.645Z,74.05
2024-01-17T10:30:54.586Z,75.58
2024-01-17T10:35:56.666Z,77.02
2024-01-17T10:41:08.166Z,77.53
2024-01-17T10:46:11.190Z,76.95
2024-01-17T10:51:22.409Z,77.79
2024-01-17T10:56:28.107Z,76.76
2024-01-17T11:01:39.151Z,76.76
2024-01-17T11:06:42.433Z,76.92
2024-01-17T11:11:44.422Z,76.94
2024-01-17T11:16:50.138Z,76.42
2024-01-17T11:21:52.286Z,76.73
2024-01-17T11:27:06.391Z,76.15
2024-01-17T11:32:18.169Z,71.59
2024-01-17T11:37:40.038Z,66.98
2024-01-17T11:42:42.049Z,76.35
2024-01-17T11:47:53.974Z,76.39
2024-01-17T11:52:56.715Z,77.07
2024-01-17T11:58:00.879Z,76.80
2024-01-17T12:03:03.953Z,72.45
2024-01-17T12:08:06.624Z,69.90
2024-01-17T12:13:08.910Z,74.03
2024-01-17T12:18:11.355Z,76.36
2024-01-17T12:23:13.167Z,77.07
2024-01-17T12:28:19.934Z,77.43
2024-01-17T12:33:25.957Z,77.47
2024-01-17T12:38:30.221Z,77.14
2024-01-17T12:43:36.779Z,76.55
2024-01-17T12:48:38.875Z,77.91
2024-01-17T12:53:43.121Z,72.62
2024-01-17T12:58:45.281Z,72.96
2024-01-17T13:04:00.643Z,76.24
2024-01-17T13:09:33.084Z,69.62
2024-01-17T13:14:35.264Z,72.96
2024-01-17T13:19:39.217Z,74.55
2024-01-17T13:24:41.466Z,75.97
2024-01-17T13:29:43.472Z,76.80
2024-01-17T13:34:45.746Z,77.97
2024-01-17T13:39:47.789Z,69.71
2024-01-17T13:44:49.979Z,65.49
2024-01-17T13:49:53.612Z,61.83
2024-01-17T13:54:56.884Z,70.61
2024-01-17T13:59:58.837Z,73.87
2024-01-17T14:05:00.598Z,71.71
2024-01-17T14:10:02.509Z,72.43
2024-01-17T14:15:05.797Z,71.86
2024-01-17T14:20:17.863Z,75.10
2024-01-17T14:25:20.065Z,76.72
2024-01-17T14:30:22.326Z,78.20
2024-01-17T14:35:25.120Z,76.06
2024-01-17T14:40:27.195Z,73.94
2024-01-17T14:45:29.326Z,68.80
2024-01-17T14:50:31.580Z,68.53
2024-01-17T14:55:33.944Z,70.92
2024-01-17T15:00:35.807Z,71.68
2024-01-17T15:05:37.953Z,72.54
2024-01-17T15:10:40.776Z,72.81
2024-01-17T15:15:42.783Z,66.99
2024-01-17T15:20:45.100Z,71.22
2024-01-17T15:25:47.112Z,73.25
2024-01-17T15:30:49.785Z,76.49
2024-01-17T15:35:52.568Z,75.56
2024-01-17T15:40:57.102Z,77.82
2024-01-17T15:46:00.983Z,75.81
2024-01-17T15:51:04.827Z,76.43
2024-01-17T15:56:06.879Z,76.04
2024-01-17T16:01:09.432Z,76.98
2024-01-17T16:06:11.568Z,77.43
2024-01-17T16:11:13.591Z,78.00
2024-01-17T16:16:15.368Z,77.73
2024-01-17T16:21:17.209Z,77.81
2024-01-17T16:26:19.316Z,77.98
2024-01-17T16:31:21.422Z,78.96
2024-01-17T16:36:23.658Z,77.63
2024-01-17T16:41:25.571Z,68.05
2024-01-17T16:46:27.433Z,65.37
2024-01-17T16:51:29.237Z,66.12
2024-01-17T16:56:31.285Z,66.97
2024-01-17T17:01:33.459Z,63.68
2024-01-17T17:06:35.336Z,64.43
2024-01-17T17:11:37.112Z,67.90
2024-01-17T17:16:38.847Z,75.91
2024-01-17T17:21:40.891Z,79.20
2024-01-17T17:26:43.453Z,80.21
2024-01-17T17:31:45.350Z,78.95
2024-01-17T17:36:47.199Z,76.43
2024-01-17T17:41:49.242Z,71.91
2024-01-17T17:46:51.455Z,69.64
2024-01-17T17:51:53.211Z,76.65
2024-01-17T17:56:55.294Z,72.83
2024-01-17T18:01:57.382Z,79.12
2024-01-17T18:06:59.344Z,80.84
2024-01-17T18:12:01.335Z,81.96
2024-01-17T18:17:06.431Z,80.03
2024-01-17T18:22:08.625Z,81.02
2024-01-17T18:27:10.617Z,79.57
2024-01-17T18:32:12.446Z,79.60
2024-01-17T18:37:14.258Z,82.13
2024-01-17T18:42:16.092Z,81.79
2024-01-17T18:47:18.052Z,82.04
2024-01-17T18:52:19.712Z,81.33
2024-01-17T18:57:22.045Z,76.64
2024-01-17T19:02:24.761Z,83.34
2024-01-17T19:07:26.596Z,83.02
2024-01-17T19:12:28.611Z,83.04
2024-01-17T19:17:30.790Z,83.01
2024-01-17T19:22:34.274Z,83.63
2024-01-17T19:27:37.641Z,83.66
2024-01-17T19:32:40.107Z,83.50
2024-01-17T19:37:44.619Z,84.24
2024-01-17T19:42:46.459Z,85.00
2024-01-17T19:47:48.303Z,85.16
2024-01-17T19:52:50.387Z,85.38
2024-01-17T19:57:52.495Z,85.66
2024-01-17T20:02:54.197Z,84.64
2024-01-17T20:07:57.023Z,84.72
2024-01-17T20:13:01.851Z,84.47
2024-01-17T20:18:04.038Z,84.83
2024-01-17T20:23:05.979Z,84.87
2024-01-17T20:28:07.956Z,84.92
2024-01-17T20:33:09.918Z,86.89
2024-01-17T20:38:11.808Z,85.32
2024-01-17T20:43:13.970Z,84.97
2024-01-17T20:48:16.033Z,85.75
2024-01-17T20:53:17.719Z,85.28
2024-01-17T20:58:19.573Z,84.91
2024-01-17T21:03:21.612Z,84.87
2024-01-17T21:08:23.456Z,85.30
2024-01-17T21:13:25.220Z,85.12
2024-01-17T21:18:28.262Z,85.22
2024-01-17T21:23:30.805Z,85.21
2024-01-17T21:28:32.764Z,85.35
2024-01-17T21:33:34.800Z,85.40
2024-01-17T21:38:37.038Z,86.10
2024-01-17T21:43:38.796Z,85.44
2024-01-17T21:48:45.075Z,85.57
2024-01-17T21:53:47.497Z,86.35
2024-01-17T21:58:49.586Z,85.53
2024-01-17T22:03:51.364Z,85.90
2024-01-17T22:08:58.886Z,85.80
2024-01-17T22:14:01.517Z,85.67
2024-01-17T22:19:03.684Z,88.02
2024-01-17T22:24:06.412Z,87.49
2024-01-17T22:29:09.937Z,86.69
2024-01-17T22:34:11.953Z,86.02
2024-01-17T22:39:15.938Z,86.28
2024-01-17T22:44:19.257Z,85.96
2024-01-17T22:49:23.077Z,85.99
2024-01-17T22:54:24.958Z,86.33
2024-01-17T22:59:26.790Z,85.87
2024-01-17T23:04:28.949Z,86.49
2024-01-17T23:09:31.162Z,85.97
2024-01-17T23:14:32.961Z,85.67
2024-01-17T23:19:35.007Z,85.77
2024-01-17T23:24:37.137Z,85.96
2024-01-17T23:29:38.939Z,85.61
2024-01-17T23:34:41.030Z,85.60
2024-01-17T23:39:42.893Z,85.67
2024-01-17T23:44:45.879Z,85.22
2024-01-17T23:49:47.887Z,85.75
2024-01-17T23:54:50.007Z,85.76
2024-01-17T23:59:51.784Z,85.79
